Strona główna
METAR-TAF:

METAR-TAF

Lotnisko :

Lannion, Francja

Szerokość geograficzna: 48-45N, Długość geograficzna: 003-28W, wysokość: 89 m

Aktualna obserwacja pogody

Raport powstał 22 minut temu, godzina 03:00 UTC
Wiatr 8 kt od południe, zmienny między południowo-południowy wschód i południowy zachód
Temperatura 12°C
Wilgotność 94%
Ciśnienie 1011 hPa
Widzialność 10 km lub więcej
Mało chmury na wysokości 1200 ft
Przerywane chmury na wysokości 3200 ft
Przerywane chmury na wysokości 5000 ft

METAR: LFRO 240300Z AUTO 18008KT 160V220 9999 FEW012 BKN032 BKN050 12/11 Q1011

czas: 05:22 (03:22 UTC)


TAF: brakujący

Obserwacja i prognoza pogody dla ponad 4000 lotnisk (raport METAR i TAF).

Dostępne stacje oznaczono żółtymi i czerwonymi punktami na mapie.

Najedź kursorem aby zobaczyć nazwę stacji.

Kliknij aby zobaczyć obserwacje i prognozy pogody.

Aby zmienić mapę: kliknij na zielony przycisk z czarnym krzyżykiem, aby powiększyć; na zielony przycisk z myślnikiem, aby pomniejszyć; na zielone strzałki, aby przejść do map sąsiednich.


METAR-TAF: